Eastanollee, Georgia
Current Conditions -  °F | °C
As of 2:15 PM on Sunday 28 Dec 2014 (Local Time) from KTOC Reporting Station
Overcast Overcast  
Wind Chill: 58°   Ceiling: 300
Heat Index: 58°   Visibility: 10mi
Dew Point: 57°   Wind: 7mph
Humidity: 94%   Direction: 230°SW
Pressure: 30.02"   Gusts: NA
Location:  34.52°N, 83.25°W
Report Text: KTOC 281915Z AUTO 23006KT 10SM BKN003 OVC008 15/14 A3002 RMK AO2 T01460137
Loading
Personal Weather Stations






























Interactive Weather Map New forecast layout! Learn more

10-Day Weather Forecast

Advertisements
Track Severe Weather on mobile